sensor_id;sensor_type;location;lat;lon;timestamp;pressure;altitude;pressure_sealevel;temperature;humidity
13209;BME280;6669;42.678;23.332;2024-03-29T00:02:21;94306.06;;;11.74;100.00
13209;BME280;6669;42.678;23.332;2024-03-29T00:04:47;94313.16;;;11.80;100.00
13209;BME280;6669;42.678;23.332;2024-03-29T00:07:14;94309.34;;;11.83;100.00
13209;BME280;6669;42.678;23.332;2024-03-29T00:09:40;94313.94;;;11.81;100.00
13209;BME280;6669;42.678;23.332;2024-03-29T00:12:07;94310.72;;;11.78;100.00
13209;BME280;6669;42.678;23.332;2024-03-29T00:14:33;94316.19;;;11.84;100.00
13209;BME280;6669;42.678;23.332;2024-03-29T00:16:59;94319.97;;;11.81;100.00
13209;BME280;6669;42.678;23.332;2024-03-29T00:19:27;94320.75;;;11.82;100.00
13209;BME280;6669;42.678;23.332;2024-03-29T00:21:53;94324.53;;;11.79;100.00
13209;BME280;6669;42.678;23.332;2024-03-29T00:24:19;94322.72;;;11.80;100.00
13209;BME280;6669;42.678;23.332;2024-03-29T00:26:45;94325.53;;;11.78;100.00
13209;BME280;6669;42.678;23.332;2024-03-29T00:29:12;94331.38;;;11.80;100.00
13209;BME280;6669;42.678;23.332;2024-03-29T00:31:38;94338.94;;;11.75;100.00
13209;BME280;6669;42.678;23.332;2024-03-29T00:34:04;94341.09;;;11.71;100.00
13209;BME280;6669;42.678;23.332;2024-03-29T00:36:31;94325.47;;;11.71;100.00
13209;BME280;6669;42.678;23.332;2024-03-29T00:38:58;94342.34;;;11.75;100.00
13209;BME280;6669;42.678;23.332;2024-03-29T00:41:24;94331.47;;;11.72;100.00
13209;BME280;6669;42.678;23.332;2024-03-29T00:43:50;94345.38;;;11.79;100.00
13209;BME280;6669;42.678;23.332;2024-03-29T00:46:16;94351.28;;;11.88;100.00
13209;BME280;6669;42.678;23.332;2024-03-29T00:48:42;94343.94;;;11.76;100.00
13209;BME280;6669;42.678;23.332;2024-03-29T00:51:09;94347.19;;;11.78;100.00
13209;BME280;6669;42.678;23.332;2024-03-29T00:53:36;94350.69;;;11.71;100.00
13209;BME280;6669;42.678;23.332;2024-03-29T00:56:03;94346.50;;;11.70;100.00
13209;BME280;6669;42.678;23.332;2024-03-29T00:58:29;94336.50;;;11.73;100.00
13209;BME280;6669;42.678;23.332;2024-03-29T01:00:55;94348.09;;;11.71;100.00
13209;BME280;6669;42.678;23.332;2024-03-29T01:03:21;94360.13;;;11.72;100.00
13209;BME280;6669;42.678;23.332;2024-03-29T01:05:47;94348.09;;;11.71;100.00
13209;BME280;6669;42.678;23.332;2024-03-29T01:08:13;94361.69;;;11.66;100.00
13209;BME280;6669;42.678;23.332;2024-03-29T01:10:41;94358.88;;;11.68;100.00
13209;BME280;6669;42.678;23.332;2024-03-29T01:13:07;94357.06;;;11.68;100.00
13209;BME280;6669;42.678;23.332;2024-03-29T01:15:34;94356.09;;;11.69;100.00
13209;BME280;6669;42.678;23.332;2024-03-29T01:18:00;94355.34;;;11.75;100.00
13209;BME280;6669;42.678;23.332;2024-03-29T01:20:26;94363.91;;;11.69;100.00
13209;BME280;6669;42.678;23.332;2024-03-29T01:22:52;94374.22;;;11.77;100.00
13209;BME280;6669;42.678;23.332;2024-03-29T01:25:18;94365.03;;;11.60;100.00
13209;BME280;6669;42.678;23.332;2024-03-29T01:27:46;94364.38;;;11.58;100.00
13209;BME280;6669;42.678;23.332;2024-03-29T01:30:12;94356.06;;;11.48;100.00
13209;BME280;6669;42.678;23.332;2024-03-29T01:32:38;94363.47;;;11.66;100.00
13209;BME280;6669;42.678;23.332;2024-03-29T01:35:04;94361.19;;;11.56;100.00
13209;BME280;6669;42.678;23.332;2024-03-29T01:37:31;94368.00;;;11.57;100.00
13209;BME280;6669;42.678;23.332;2024-03-29T01:39:57;94366.19;;;11.57;100.00
13209;BME280;6669;42.678;23.332;2024-03-29T01:42:23;94371.44;;;11.42;100.00
13209;BME280;6669;42.678;23.332;2024-03-29T01:44:51;94386.94;;;11.51;100.00
13209;BME280;6669;42.678;23.332;2024-03-29T01:47:18;94386.50;;;11.47;100.00
13209;BME280;6669;42.678;23.332;2024-03-29T01:49:45;94393.06;;;11.43;100.00
13209;BME280;6669;42.678;23.332;2024-03-29T01:52:13;94399.22;;;11.20;100.00
13209;BME280;6669;42.678;23.332;2024-03-29T01:55:01;94400.25;;;11.26;100.00
13209;BME280;6669;42.678;23.332;2024-03-29T01:57:28;94412.56;;;11.32;100.00
13209;BME280;6669;42.678;23.332;2024-03-29T01:59:57;94409.31;;;11.30;100.00
13209;BME280;6669;42.678;23.332;2024-03-29T02:02:25;94415.78;;;11.34;100.00
13209;BME280;6669;42.678;23.332;2024-03-29T02:04:52;94414.16;;;11.33;100.00
13209;BME280;6669;42.678;23.332;2024-03-29T02:07:20;94428.09;;;11.40;100.00
13209;BME280;6669;42.678;23.332;2024-03-29T02:09:47;94441.09;;;11.40;100.00
13209;BME280;6669;42.678;23.332;2024-03-29T02:12:14;94456.78;;;11.32;100.00
13209;BME280;6669;42.678;23.332;2024-03-29T02:14:41;94452.69;;;11.23;100.00
13209;BME280;6669;42.678;23.332;2024-03-29T02:17:10;94451.75;;;11.45;100.00
13209;BME280;6669;42.678;23.332;2024-03-29T02:19:37;94461.16;;;11.47;100.00
13209;BME280;6669;42.678;23.332;2024-03-29T02:22:05;94476.97;;;11.30;100.00
13209;BME280;6669;42.678;23.332;2024-03-29T02:24:36;94475.81;;;11.18;100.00
13209;BME280;6669;42.678;23.332;2024-03-29T02:27:03;94480.22;;;11.32;100.00
13209;BME280;6669;42.678;23.332;2024-03-29T02:29:31;94482.09;;;11.38;100.00
13209;BME280;6669;42.678;23.332;2024-03-29T02:31:58;94488.81;;;11.33;100.00
13209;BME280;6669;42.678;23.332;2024-03-29T02:34:25;94490.59;;;11.17;100.00
13209;BME280;6669;42.678;23.332;2024-03-29T02:36:52;94501.66;;;11.19;100.00
13209;BME280;6669;42.678;23.332;2024-03-29T02:39:20;94502.53;;;11.11;100.00
13209;BME280;6669;42.678;23.332;2024-03-29T02:41:48;94502.81;;;11.17;100.00
13209;BME280;6669;42.678;23.332;2024-03-29T02:44:15;94501.44;;;11.06;100.00
13209;BME280;6669;42.678;23.332;2024-03-29T02:46:43;94510.25;;;11.05;100.00
13209;BME280;6669;42.678;23.332;2024-03-29T02:49:10;94506.13;;;11.10;100.00
13209;BME280;6669;42.678;23.332;2024-03-29T02:51:36;94512.69;;;11.06;100.00
13209;BME280;6669;42.678;23.332;2024-03-29T02:54:03;94499.41;;;11.01;100.00
13209;BME280;6669;42.678;23.332;2024-03-29T02:56:30;94516.97;;;10.99;100.00
13209;BME280;6669;42.678;23.332;2024-03-29T02:58:58;94509.44;;;11.04;100.00
13209;BME280;6669;42.678;23.332;2024-03-29T03:01:24;94502.44;;;10.90;100.00
13209;BME280;6669;42.678;23.332;2024-03-29T03:03:52;94510.69;;;10.93;100.00
13209;BME280;6669;42.678;23.332;2024-03-29T03:06:18;94513.38;;;11.00;100.00
13209;BME280;6669;42.678;23.332;2024-03-29T03:08:45;94524.47;;;10.94;100.00
13209;BME280;6669;42.678;23.332;2024-03-29T03:11:30;94530.06;;;10.91;100.00
13209;BME280;6669;42.678;23.332;2024-03-29T03:13:58;94530.66;;;10.93;100.00
13209;BME280;6669;42.678;23.332;2024-03-29T03:16:26;94530.47;;;10.94;100.00
13209;BME280;6669;42.678;23.332;2024-03-29T03:18:52;94528.34;;;10.83;100.00
13209;BME280;6669;42.678;23.332;2024-03-29T03:21:19;94544.38;;;10.87;100.00
13209;BME280;6669;42.678;23.332;2024-03-29T03:23:46;94544.50;;;10.93;100.00
13209;BME280;6669;42.678;23.332;2024-03-29T03:26:13;94543.06;;;10.91;100.00
13209;BME280;6669;42.678;23.332;2024-03-29T03:28:40;94548.25;;;10.91;100.00
13209;BME280;6669;42.678;23.332;2024-03-29T03:31:08;94544.25;;;10.80;100.00
13209;BME280;6669;42.678;23.332;2024-03-29T03:33:35;94550.91;;;10.83;100.00
13209;BME280;6669;42.678;23.332;2024-03-29T03:36:02;94551.38;;;10.86;100.00
13209;BME280;6669;42.678;23.332;2024-03-29T03:38:28;94563.56;;;10.86;100.00
13209;BME280;6669;42.678;23.332;2024-03-29T03:40:56;94562.41;;;10.88;100.00
13209;BME280;6669;42.678;23.332;2024-03-29T03:43:22;94569.34;;;10.96;100.00
13209;BME280;6669;42.678;23.332;2024-03-29T03:45:49;94579.50;;;10.83;100.00
13209;BME280;6669;42.678;23.332;2024-03-29T03:48:16;94574.88;;;10.93;100.00
13209;BME280;6669;42.678;23.332;2024-03-29T03:50:44;94592.91;;;10.94;100.00
13209;BME280;6669;42.678;23.332;2024-03-29T03:53:10;94591.78;;;10.97;100.00
13209;BME280;6669;42.678;23.332;2024-03-29T03:55:37;94592.19;;;11.01;100.00
13209;BME280;6669;42.678;23.332;2024-03-29T03:58:04;94605.06;;;11.02;100.00
13209;BME280;6669;42.678;23.332;2024-03-29T04:00:31;94600.00;;;11.01;100.00
13209;BME280;6669;42.678;23.332;2024-03-29T04:02:57;94592.91;;;10.94;100.00
13209;BME280;6669;42.678;23.332;2024-03-29T04:05:26;94596.03;;;10.90;100.00
13209;BME280;6669;42.678;23.332;2024-03-29T04:07:52;94596.84;;;10.90;100.00
13209;BME280;6669;42.678;23.332;2024-03-29T04:10:19;94590.38;;;10.86;100.00
13209;BME280;6669;42.678;23.332;2024-03-29T04:12:45;94606.16;;;10.85;100.00
13209;BME280;6669;42.678;23.332;2024-03-29T04:15:12;94605.63;;;10.89;100.00
13209;BME280;6669;42.678;23.332;2024-03-29T04:17:38;94620.19;;;10.99;100.00
13209;BME280;6669;42.678;23.332;2024-03-29T04:20:06;94618.28;;;10.92;100.00
13209;BME280;6669;42.678;23.332;2024-03-29T04:22:34;94620.53;;;10.95;100.00
13209;BME280;6669;42.678;23.332;2024-03-29T04:25:02;94635.91;;;11.05;100.00
13209;BME280;6669;42.678;23.332;2024-03-29T04:27:28;94644.69;;;11.04;100.00
13209;BME280;6669;42.678;23.332;2024-03-29T04:29:55;94643.13;;;10.95;100.00
13209;BME280;6669;42.678;23.332;2024-03-29T04:32:21;94638.44;;;10.90;100.00
13209;BME280;6669;42.678;23.332;2024-03-29T04:34:49;94649.88;;;11.04;100.00
13209;BME280;6669;42.678;23.332;2024-03-29T04:37:16;94656.50;;;11.15;100.00
13209;BME280;6669;42.678;23.332;2024-03-29T04:39:45;94664.59;;;11.20;100.00
13209;BME280;6669;42.678;23.332;2024-03-29T04:42:13;94660.19;;;11.21;100.00
13209;BME280;6669;42.678;23.332;2024-03-29T04:44:42;94664.13;;;11.17;100.00
13209;BME280;6669;42.678;23.332;2024-03-29T04:47:09;94665.59;;;11.11;100.00
13209;BME280;6669;42.678;23.332;2024-03-29T04:49:37;94667.41;;;11.10;100.00
13209;BME280;6669;42.678;23.332;2024-03-29T04:52:04;94676.31;;;11.16;100.00
13209;BME280;6669;42.678;23.332;2024-03-29T04:54:32;94681.22;;;11.11;100.00
13209;BME280;6669;42.678;23.332;2024-03-29T04:57:01;94689.16;;;11.18;100.00
13209;BME280;6669;42.678;23.332;2024-03-29T04:59:31;94681.97;;;11.20;100.00
13209;BME280;6669;42.678;23.332;2024-03-29T05:01:59;94692.78;;;11.32;100.00
13209;BME280;6669;42.678;23.332;2024-03-29T05:04:27;94692.63;;;11.33;100.00
13209;BME280;6669;42.678;23.332;2024-03-29T05:06:54;94689.91;;;11.26;100.00
13209;BME280;6669;42.678;23.332;2024-03-29T05:09:24;94693.72;;;11.16;100.00
13209;BME280;6669;42.678;23.332;2024-03-29T05:11:51;94694.41;;;11.09;100.00
13209;BME280;6669;42.678;23.332;2024-03-29T05:14:21;94703.78;;;11.19;100.00
13209;BME280;6669;42.678;23.332;2024-03-29T05:16:48;94704.22;;;10.99;100.00
13209;BME280;6669;42.678;23.332;2024-03-29T05:19:17;94703.25;;;11.23;100.00
13209;BME280;6669;42.678;23.332;2024-03-29T05:21:44;94714.88;;;11.36;100.00
13209;BME280;6669;42.678;23.332;2024-03-29T05:24:11;94714.47;;;11.24;100.00
13209;BME280;6669;42.678;23.332;2024-03-29T05:26:39;94714.38;;;11.40;100.00
13209;BME280;6669;42.678;23.332;2024-03-29T05:29:06;94722.88;;;11.49;100.00
13209;BME280;6669;42.678;23.332;2024-03-29T05:31:35;94720.00;;;11.67;100.00
13209;BME280;6669;42.678;23.332;2024-03-29T05:34:02;94722.19;;;11.78;100.00
13209;BME280;6669;42.678;23.332;2024-03-29T05:36:30;94720.66;;;11.84;100.00
13209;BME280;6669;42.678;23.332;2024-03-29T05:38:57;94727.41;;;11.93;100.00
13209;BME280;6669;42.678;23.332;2024-03-29T05:41:26;94725.22;;;12.05;100.00
13209;BME280;6669;42.678;23.332;2024-03-29T05:43:53;94723.59;;;12.19;100.00
13209;BME280;6669;42.678;23.332;2024-03-29T05:46:20;94724.22;;;12.21;100.00
13209;BME280;6669;42.678;23.332;2024-03-29T05:48:49;94713.53;;;12.31;100.00
13209;BME280;6669;42.678;23.332;2024-03-29T05:51:16;94714.59;;;12.37;100.00
13209;BME280;6669;42.678;23.332;2024-03-29T05:53:43;94716.31;;;12.30;100.00
13209;BME280;6669;42.678;23.332;2024-03-29T05:56:10;94719.91;;;12.29;100.00
13209;BME280;6669;42.678;23.332;2024-03-29T05:58:38;94721.69;;;12.28;100.00
13209;BME280;6669;42.678;23.332;2024-03-29T06:01:05;94732.03;;;12.36;100.00
13209;BME280;6669;42.678;23.332;2024-03-29T06:03:32;94726.72;;;12.45;100.00
13209;BME280;6669;42.678;23.332;2024-03-29T06:06:01;94731.75;;;12.61;100.00
13209;BME280;6669;42.678;23.332;2024-03-29T06:08:28;94736.25;;;12.67;100.00
13209;BME280;6669;42.678;23.332;2024-03-29T06:10:55;94732.38;;;12.78;100.00
13209;BME280;6669;42.678;23.332;2024-03-29T06:13:24;94735.50;;;12.88;100.00
13209;BME280;6669;42.678;23.332;2024-03-29T06:16:16;94740.44;;;12.98;100.00
13209;BME280;6669;42.678;23.332;2024-03-29T06:19:00;94738.16;;;13.10;100.00
13209;BME280;6669;42.678;23.332;2024-03-29T06:21:29;94743.88;;;13.20;100.00
13209;BME280;6669;42.678;23.332;2024-03-29T06:23:59;94738.50;;;13.29;100.00
13209;BME280;6669;42.678;23.332;2024-03-29T06:26:27;94736.78;;;13.36;100.00
13209;BME280;6669;42.678;23.332;2024-03-29T06:28:54;94742.34;;;13.48;100.00
13209;BME280;6669;42.678;23.332;2024-03-29T06:31:21;94747.00;;;13.52;100.00
13209;BME280;6669;42.678;23.332;2024-03-29T06:33:48;94746.22;;;13.73;100.00
13209;BME280;6669;42.678;23.332;2024-03-29T06:36:16;94740.28;;;13.86;100.00
13209;BME280;6669;42.678;23.332;2024-03-29T06:38:44;94745.03;;;14.04;100.00
13209;BME280;6669;42.678;23.332;2024-03-29T06:41:12;94747.91;;;14.16;100.00
13209;BME280;6669;42.678;23.332;2024-03-29T06:43:41;94746.16;;;14.23;99.24
13209;BME280;6669;42.678;23.332;2024-03-29T06:46:09;94744.22;;;14.32;96.99
13209;BME280;6669;42.678;23.332;2024-03-29T06:48:36;94750.28;;;14.39;96.45
13209;BME280;6669;42.678;23.332;2024-03-29T06:51:04;94748.91;;;14.44;96.05
13209;BME280;6669;42.678;23.332;2024-03-29T06:53:31;94766.88;;;14.53;94.73
13209;BME280;6669;42.678;23.332;2024-03-29T06:56:01;94753.41;;;14.57;92.46
13209;BME280;6669;42.678;23.332;2024-03-29T06:58:28;94751.19;;;14.60;91.60
13209;BME280;6669;42.678;23.332;2024-03-29T07:00:55;94750.63;;;14.65;91.86
13209;BME280;6669;42.678;23.332;2024-03-29T07:03:24;94759.72;;;14.69;90.84
13209;BME280;6669;42.678;23.332;2024-03-29T07:05:52;94757.94;;;14.76;90.65
13209;BME280;6669;42.678;23.332;2024-03-29T07:08:19;94759.97;;;14.81;90.56
13209;BME280;6669;42.678;23.332;2024-03-29T07:10:46;94764.63;;;14.85;90.41
13209;BME280;6669;42.678;23.332;2024-03-29T07:13:15;94762.25;;;14.91;89.94
13209;BME280;6669;42.678;23.332;2024-03-29T07:15:51;94769.72;;;15.00;89.55
13209;BME280;6669;42.678;23.332;2024-03-29T07:18:18;94762.88;;;14.99;90.13
13209;BME280;6669;42.678;23.332;2024-03-29T07:20:45;94775.84;;;15.21;88.83
13209;BME280;6669;42.678;23.332;2024-03-29T07:23:12;94774.84;;;15.29;87.70
13209;BME280;6669;42.678;23.332;2024-03-29T07:25:40;94780.91;;;15.36;86.03
13209;BME280;6669;42.678;23.332;2024-03-29T07:28:08;94773.66;;;15.31;86.42
13209;BME280;6669;42.678;23.332;2024-03-29T07:30:37;94774.47;;;15.39;86.89
13209;BME280;6669;42.678;23.332;2024-03-29T07:33:05;94769.63;;;15.42;85.63
13209;BME280;6669;42.678;23.332;2024-03-29T07:35:32;94765.84;;;15.58;85.65
13209;BME280;6669;42.678;23.332;2024-03-29T07:37:59;94767.47;;;15.73;85.45
13209;BME280;6669;42.678;23.332;2024-03-29T07:40:26;94771.13;;;15.78;84.00
13209;BME280;6669;42.678;23.332;2024-03-29T07:42:53;94763.06;;;15.80;82.90
13209;BME280;6669;42.678;23.332;2024-03-29T07:45:21;94761.06;;;15.89;83.21
13209;BME280;6669;42.678;23.332;2024-03-29T07:47:50;94762.06;;;15.94;82.66
13209;BME280;6669;42.678;23.332;2024-03-29T07:50:18;94762.06;;;16.01;79.84
13209;BME280;6669;42.678;23.332;2024-03-29T07:52:45;94763.28;;;15.98;81.10
13209;BME280;6669;42.678;23.332;2024-03-29T07:55:13;94767.31;;;16.08;81.27
13209;BME280;6669;42.678;23.332;2024-03-29T07:57:40;94765.50;;;16.08;80.48
13209;BME280;6669;42.678;23.332;2024-03-29T08:00:08;94766.50;;;16.21;81.38
13209;BME280;6669;42.678;23.332;2024-03-29T08:02:38;94772.13;;;16.31;80.09
13209;BME280;6669;42.678;23.332;2024-03-29T08:05:07;94767.28;;;16.41;79.62
13209;BME280;6669;42.678;23.332;2024-03-29T08:07:35;94759.81;;;16.45;79.68
13209;BME280;6669;42.678;23.332;2024-03-29T08:10:03;94762.19;;;16.53;78.50
13209;BME280;6669;42.678;23.332;2024-03-29T08:12:32;94756.09;;;16.73;79.30
13209;BME280;6669;42.678;23.332;2024-03-29T08:15:01;94753.84;;;16.83;76.85
13209;BME280;6669;42.678;23.332;2024-03-29T08:17:28;94752.22;;;16.95;76.50
13209;BME280;6669;42.678;23.332;2024-03-29T08:19:55;94751.34;;;17.08;77.05
13209;BME280;6669;42.678;23.332;2024-03-29T08:22:24;94751.09;;;17.16;75.59
13209;BME280;6669;42.678;23.332;2024-03-29T08:24:51;94745.47;;;17.13;76.27
13209;BME280;6669;42.678;23.332;2024-03-29T08:27:19;94749.53;;;17.09;74.32
13209;BME280;6669;42.678;23.332;2024-03-29T08:29:46;94740.59;;;17.23;74.67
13209;BME280;6669;42.678;23.332;2024-03-29T08:32:15;94734.47;;;17.29;73.90
13209;BME280;6669;42.678;23.332;2024-03-29T08:34:42;94733.84;;;17.34;74.11
13209;BME280;6669;42.678;23.332;2024-03-29T08:37:09;94732.63;;;17.37;73.50
13209;BME280;6669;42.678;23.332;2024-03-29T08:39:38;94720.88;;;17.39;73.00
13209;BME280;6669;42.678;23.332;2024-03-29T08:42:05;94725.63;;;17.56;72.71
13209;BME280;6669;42.678;23.332;2024-03-29T08:44:33;94715.66;;;17.64;71.99
13209;BME280;6669;42.678;23.332;2024-03-29T08:47:01;94721.50;;;17.92;72.06
13209;BME280;6669;42.678;23.332;2024-03-29T08:49:29;94724.59;;;18.14;70.12
13209;BME280;6669;42.678;23.332;2024-03-29T08:51:56;94726.47;;;18.07;69.61
13209;BME280;6669;42.678;23.332;2024-03-29T08:54:23;94722.41;;;18.29;70.52
13209;BME280;6669;42.678;23.332;2024-03-29T08:56:52;94715.66;;;18.40;68.40
13209;BME280;6669;42.678;23.332;2024-03-29T08:59:19;94711.47;;;18.51;66.53
13209;BME280;6669;42.678;23.332;2024-03-29T09:01:46;94706.13;;;18.58;66.88
13209;BME280;6669;42.678;23.332;2024-03-29T09:04:14;94704.59;;;18.69;66.16
13209;BME280;6669;42.678;23.332;2024-03-29T09:06:42;94702.09;;;18.74;63.66
13209;BME280;6669;42.678;23.332;2024-03-29T09:09:09;94709.78;;;18.75;61.72
13209;BME280;6669;42.678;23.332;2024-03-29T09:11:36;94687.41;;;18.66;62.82
13209;BME280;6669;42.678;23.332;2024-03-29T09:14:05;94689.59;;;18.69;62.90
13209;BME280;6669;42.678;23.332;2024-03-29T09:16:35;94689.22;;;18.84;61.87
13209;BME280;6669;42.678;23.332;2024-03-29T09:19:02;94678.69;;;19.03;61.33
13209;BME280;6669;42.678;23.332;2024-03-29T09:21:30;94687.41;;;19.15;60.96
13209;BME280;6669;42.678;23.332;2024-03-29T09:23:58;94681.00;;;19.11;60.32
13209;BME280;6669;42.678;23.332;2024-03-29T09:26:25;94673.94;;;18.93;60.42
13209;BME280;6669;42.678;23.332;2024-03-29T09:28:53;94673.22;;;19.16;60.44
13209;BME280;6669;42.678;23.332;2024-03-29T09:31:21;94663.06;;;19.32;60.93
13209;BME280;6669;42.678;23.332;2024-03-29T09:33:48;94656.41;;;19.29;59.31
13209;BME280;6669;42.678;23.332;2024-03-29T09:36:20;94648.19;;;19.37;58.84
13209;BME280;6669;42.678;23.332;2024-03-29T09:38:49;94650.13;;;19.42;57.33
13209;BME280;6669;42.678;23.332;2024-03-29T09:41:17;94650.19;;;19.66;57.38
13209;BME280;6669;42.678;23.332;2024-03-29T09:43:46;94644.69;;;19.79;57.39
13209;BME280;6669;42.678;23.332;2024-03-29T09:46:14;94639.56;;;19.96;57.39
13209;BME280;6669;42.678;23.332;2024-03-29T09:48:44;94634.16;;;20.03;57.35
13209;BME280;6669;42.678;23.332;2024-03-29T09:51:13;94630.47;;;20.28;57.73
13209;BME280;6669;42.678;23.332;2024-03-29T09:53:42;94628.38;;;20.41;56.63
13209;BME280;6669;42.678;23.332;2024-03-29T09:56:10;94629.38;;;20.52;56.15
13209;BME280;6669;42.678;23.332;2024-03-29T09:58:38;94628.34;;;20.53;55.42
13209;BME280;6669;42.678;23.332;2024-03-29T10:01:06;94628.28;;;20.36;54.69
13209;BME280;6669;42.678;23.332;2024-03-29T10:03:39;94625.28;;;20.21;55.43
13209;BME280;6669;42.678;23.332;2024-03-29T10:06:08;94624.72;;;20.31;56.13
13209;BME280;6669;42.678;23.332;2024-03-29T10:08:38;94629.59;;;20.51;56.71
13209;BME280;6669;42.678;23.332;2024-03-29T10:11:05;94622.63;;;20.85;56.55
13209;BME280;6669;42.678;23.332;2024-03-29T10:13:33;94615.88;;;21.06;56.10
13209;BME280;6669;42.678;23.332;2024-03-29T10:16:01;94631.63;;;21.47;54.94
13209;BME280;6669;42.678;23.332;2024-03-29T10:18:29;94616.22;;;21.44;54.15
13209;BME280;6669;42.678;23.332;2024-03-29T10:21:01;94606.94;;;21.76;53.38
13209;BME280;6669;42.678;23.332;2024-03-29T10:23:31;94613.38;;;22.41;53.05
13209;BME280;6669;42.678;23.332;2024-03-29T10:25:58;94605.88;;;22.77;51.21
13209;BME280;6669;42.678;23.332;2024-03-29T10:28:27;94613.97;;;23.47;50.90
13209;BME280;6669;42.678;23.332;2024-03-29T10:30:57;94613.91;;;24.12;50.05
13209;BME280;6669;42.678;23.332;2024-03-29T10:33:27;94623.22;;;24.68;49.43
13209;BME280;6669;42.678;23.332;2024-03-29T10:35:56;94618.50;;;24.91;48.97
13209;BME280;6669;42.678;23.332;2024-03-29T10:38:24;94608.97;;;25.21;48.93
13209;BME280;6669;42.678;23.332;2024-03-29T10:40:53;94597.53;;;25.10;47.90
13209;BME280;6669;42.678;23.332;2024-03-29T10:43:21;94598.06;;;25.38;47.61
13209;BME280;6669;42.678;23.332;2024-03-29T10:45:48;94599.38;;;25.97;47.81
13209;BME280;6669;42.678;23.332;2024-03-29T10:48:19;94599.31;;;26.28;47.03
13209;BME280;6669;42.678;23.332;2024-03-29T10:50:48;94594.59;;;25.94;46.59
13209;BME280;6669;42.678;23.332;2024-03-29T10:53:17;94605.25;;;25.22;47.12
13209;BME280;6669;42.678;23.332;2024-03-29T10:55:45;94593.78;;;24.27;47.51
13209;BME280;6669;42.678;23.332;2024-03-29T10:58:15;94597.81;;;24.40;48.08
13209;BME280;6669;42.678;23.332;2024-03-29T11:00:46;94584.47;;;25.08;47.75
13209;BME280;6669;42.678;23.332;2024-03-29T11:03:19;94577.03;;;25.83;47.08
13209;BME280;6669;42.678;23.332;2024-03-29T11:05:48;94579.13;;;25.96;46.94
13209;BME280;6669;42.678;23.332;2024-03-29T11:08:20;94584.81;;;26.55;46.93
13209;BME280;6669;42.678;23.332;2024-03-29T11:10:50;94581.81;;;27.17;45.84
13209;BME280;6669;42.678;23.332;2024-03-29T11:13:27;94585.41;;;27.36;45.57
13209;BME280;6669;42.678;23.332;2024-03-29T11:15:59;94580.44;;;27.59;46.00
13209;BME280;6669;42.678;23.332;2024-03-29T11:18:27;94579.00;;;27.03;45.72
13209;BME280;6669;42.678;23.332;2024-03-29T11:20:56;94578.94;;;26.58;45.65
13209;BME280;6669;42.678;23.332;2024-03-29T11:23:25;94575.69;;;25.85;46.39
13209;BME280;6669;42.678;23.332;2024-03-29T11:25:54;94571.63;;;26.24;47.38
13209;BME280;6669;42.678;23.332;2024-03-29T11:28:26;94573.94;;;27.01;47.24
13209;BME280;6669;42.678;23.332;2024-03-29T11:31:00;94572.97;;;27.61;45.83
13209;BME280;6669;42.678;23.332;2024-03-29T11:33:34;94575.63;;;27.61;45.07
13209;BME280;6669;42.678;23.332;2024-03-29T11:36:10;94570.31;;;27.61;45.46
13209;BME280;6669;42.678;23.332;2024-03-29T11:38:38;94580.34;;;28.04;45.76
13209;BME280;6669;42.678;23.332;2024-03-29T11:41:07;94569.16;;;28.69;45.77
13209;BME280;6669;42.678;23.332;2024-03-29T11:43:36;94574.59;;;28.83;45.09
13209;BME280;6669;42.678;23.332;2024-03-29T11:46:06;94568.00;;;29.14;44.75
13209;BME280;6669;42.678;23.332;2024-03-29T11:48:34;94569.31;;;28.35;45.08
13209;BME280;6669;42.678;23.332;2024-03-29T11:51:03;94562.59;;;28.37;44.71
13209;BME280;6669;42.678;23.332;2024-03-29T11:53:31;94557.88;;;27.46;46.02
13209;BME280;6669;42.678;23.332;2024-03-29T11:55:59;94557.03;;;27.51;45.73
13209;BME280;6669;42.678;23.332;2024-03-29T11:58:27;94561.03;;;27.53;46.08
13209;BME280;6669;42.678;23.332;2024-03-29T12:00:57;94549.81;;;27.81;46.13
13209;BME280;6669;42.678;23.332;2024-03-29T12:03:25;94552.91;;;27.93;45.02
13209;BME280;6669;42.678;23.332;2024-03-29T12:05:53;94550.41;;;27.48;45.54
13209;BME280;6669;42.678;23.332;2024-03-29T12:08:24;94541.78;;;28.10;45.37
13209;BME280;6669;42.678;23.332;2024-03-29T12:10:51;94546.97;;;27.96;45.73
13209;BME280;6669;42.678;23.332;2024-03-29T12:13:18;94546.56;;;28.57;45.23
13209;BME280;6669;42.678;23.332;2024-03-29T12:15:46;94537.13;;;29.02;44.87
13209;BME280;6669;42.678;23.332;2024-03-29T12:18:15;94550.28;;;28.99;43.99
13209;BME280;6669;42.678;23.332;2024-03-29T12:20:43;94551.31;;;28.41;44.42
13209;BME280;6669;42.678;23.332;2024-03-29T12:23:13;94545.50;;;28.14;45.06
13209;BME280;6669;42.678;23.332;2024-03-29T12:25:41;94547.19;;;28.73;45.19
13209;BME280;6669;42.678;23.332;2024-03-29T12:28:09;94543.50;;;28.87;44.39
13209;BME280;6669;42.678;23.332;2024-03-29T12:30:37;94540.16;;;29.34;44.66
13209;BME280;6669;42.678;23.332;2024-03-29T12:33:06;94541.59;;;29.73;43.79
13209;BME280;6669;42.678;23.332;2024-03-29T12:35:35;94535.94;;;29.94;44.12
13209;BME280;6669;42.678;23.332;2024-03-29T12:38:05;94538.31;;;29.95;44.21
13209;BME280;6669;42.678;23.332;2024-03-29T12:40:34;94539.41;;;29.94;43.54
13209;BME280;6669;42.678;23.332;2024-03-29T12:43:04;94536.41;;;30.24;43.13
13209;BME280;6669;42.678;23.332;2024-03-29T12:45:33;94538.59;;;29.94;43.19
13209;BME280;6669;42.678;23.332;2024-03-29T12:48:01;94543.78;;;29.57;42.05
13209;BME280;6669;42.678;23.332;2024-03-29T12:50:31;94531.53;;;29.18;42.99
13209;BME280;6669;42.678;23.332;2024-03-29T12:53:02;94520.38;;;29.63;42.42
13209;BME280;6669;42.678;23.332;2024-03-29T12:55:32;94521.72;;;30.07;42.69
13209;BME280;6669;42.678;23.332;2024-03-29T12:58:02;94527.59;;;30.23;41.98
13209;BME280;6669;42.678;23.332;2024-03-29T13:00:30;94526.31;;;30.71;41.60